Schneifelwetter: Wetterstation Hallschlag, 537 m . NN
Wetterdaten: Mittwoch, 29.11.2006
Datum Zeit Temp. A. Temp. 2 Feuchte A. Luftdruck Regen Wind Richtung Richtung Sonnenschein Helligkeit T Regen Taupunkt Windchill
29.11.2006 00:01 9,1 C 8,8 C 92 % 1019 hPa 0,0 l/m 18,1 km/h (3 Bft) W-SW45 250 0 min 0 lux 0,00 min 7,9 C 2,8 C
29.11.2006 00:16 9,0 C 8,7 C 92 % 1019 hPa 0,0 l/m 14,2 km/h (3 Bft) W-SW45 240 0 min 0 lux 0,00 min 7,8 C 4,3 C
29.11.2006 00:31 9,0 C 8,6 C 92 % 1020 hPa 0,0 l/m 12,5 km/h (3 Bft) SW45 235 0 min 0 lux 0,00 min 7,8 C 5,1 C
29.11.2006 00:46 9,0 C 8,7 C 93 % 1020 hPa 0,0 l/m 11,5 km/h (2 Bft) W-SW22.5 250 0 min 0 lux 0,00 min 7,9 C 5,6 C
29.11.2006 01:01 9,0 C 8,7 C 93 % 1020 hPa 0,0 l/m 12,6 km/h (3 Bft) S-SW45 205 0 min 0 lux 0,00 min 7,9 C 5,1 C
29.11.2006 01:16 9,0 C 8,7 C 93 % 1020 hPa 0,0 l/m 14,6 km/h (3 Bft) S-SW45 210 0 min 0 lux 0,00 min 7,9 C 4,1 C
29.11.2006 01:31 9,0 C 8,7 C 93 % 1020 hPa 0,3 l/m 16,5 km/h (3 Bft) W-SW22.5 255 0 min 0 lux 15,00 min 7,9 C 3,3 C
29.11.2006 01:46 9,0 C 8,7 C 93 % 1020 hPa 0,0 l/m 16,4 km/h (3 Bft) W-SW22.5 255 0 min 0 lux 0,00 min 7,9 C 3,3 C
29.11.2006 02:01 9,0 C 8,7 C 93 % 1021 hPa 0,0 l/m 22,4 km/h (4 Bft) W22.5 260 0 min 0 lux 0,00 min 7,9 C 1,2 C
29.11.2006 02:16 9,0 C 8,7 C 93 % 1021 hPa 0,0 l/m 17,0 km/h (3 Bft) W22.5 265 0 min 0 lux 0,00 min 7,9 C 3,1 C
29.11.2006 02:31 8,9 C 8,6 C 93 % 1021 hPa 0,0 l/m 16,0 km/h (3 Bft) W22.5 260 0 min 0 lux 0,00 min 7,8 C 3,4 C
29.11.2006 02:46 8,9 C 8,6 C 94 % 1021 hPa 0,0 l/m 19,3 km/h (3 Bft) W-SW45 255 0 min 0 lux 0,00 min 8,0 C 2,1 C
29.11.2006 03:01 8,8 C 8,5 C 94 % 1021 hPa 0,0 l/m 16,0 km/h (3 Bft) W45 265 0 min 0 lux 0,00 min 7,9 C 3,3 C
29.11.2006 03:16 8,7 C 8,3 C 94 % 1021 hPa 0,3 l/m 14,1 km/h (3 Bft) W-SW45 255 0 min 0 lux 15,00 min 7,8 C 4,0 C
29.11.2006 03:31 8,5 C 8,2 C 94 % 1021 hPa 0,0 l/m 10,6 km/h (2 Bft) W22.5 260 0 min 0 lux 0,00 min 7,6 C 5,6 C
29.11.2006 03:46 8,5 C 8,2 C 94 % 1021 hPa 0,0 l/m 15,2 km/h (3 Bft) W22.5 260 0 min 0 lux 0,00 min 7,6 C 3,2 C
29.11.2006 04:01 8,5 C 8,1 C 94 % 1021 hPa 0,0 l/m 11,8 km/h (2 Bft) W-SW22.5 255 0 min 0 lux 0,00 min 7,6 C 4,9 C
29.11.2006 04:16 8,4 C 8,1 C 94 % 1022 hPa 0,0 l/m 19,6 km/h (3 Bft) W45 280 0 min 0 lux 0,00 min 7,5 C 1,4 C
29.11.2006 04:31 8,3 C 7,7 C 93 % 1022 hPa 0,0 l/m 21,2 km/h (4 Bft) W45 275 0 min 0 lux 0,00 min 7,2 C 0,7 C
29.11.2006 04:46 8,0 C 7,2 C 92 % 1022 hPa 0,0 l/m 14,8 km/h (3 Bft) W22.5 270 0 min 0 lux 0,00 min 6,8 C 2,8 C
29.11.2006 05:01 7,6 C 7,0 C 92 % 1022 hPa 0,0 l/m 11,6 km/h (2 Bft) W45 270 0 min 0 lux 0,00 min 6,4 C 4,0 C
29.11.2006 05:16 7,5 C 6,8 C 92 % 1022 hPa 0,0 l/m 5,7 km/h (1 Bft) W-SW22.5 250 0 min 0 lux 0,00 min 6,3 C 7,5 C
29.11.2006 05:31 7,3 C 6,6 C 92 % 1022 hPa 0,0 l/m 9,2 km/h (2 Bft) W22.5 265 0 min 0 lux 0,00 min 6,1 C 5,1 C
29.11.2006 05:46 7,2 C 6,5 C 92 % 1022 hPa 0,0 l/m 7,0 km/h (2 Bft) W-SW22.5 250 0 min 0 lux 0,00 min 6,0 C 6,7 C
29.11.2006 06:01 7,1 C 6,4 C 92 % 1022 hPa 0,0 l/m 9,4 km/h (2 Bft) W-SW22.5 245 0 min 0 lux 0,00 min 5,9 C 4,8 C
29.11.2006 06:16 7,1 C 6,6 C 93 % 1023 hPa 0,0 l/m 14,3 km/h (3 Bft) W22.5 260 0 min 0 lux 0,00 min 6,0 C 2,0 C
29.11.2006 06:31 7,2 C 6,5 C 93 % 1023 hPa 0,0 l/m 12,5 km/h (3 Bft) W-SW22.5 255 0 min 0 lux 0,00 min 6,1 C 3,0 C
29.11.2006 06:46 7,0 C 6,5 C 93 % 1023 hPa 0,0 l/m 8,0 km/h (2 Bft) W-SW22.5 250 0 min 0 lux 0,00 min 5,9 C 5,7 C
29.11.2006 07:01 7,0 C 6,6 C 93 % 1023 hPa 0,0 l/m 9,1 km/h (2 Bft) W-SW22.5 255 0 min 0 lux 0,00 min 5,9 C 4,9 C
29.11.2006 07:16 7,1 C 6,5 C 93 % 1023 hPa 0,0 l/m 13,3 km/h (3 Bft) W-SW22.5 255 0 min 0 lux 0,00 min 6,0 C 2,5 C
29.11.2006 07:31 6,8 C 6,0 C 93 % 1024 hPa 0,0 l/m 12,1 km/h (2 Bft) W 260 0 min 0 lux 0,00 min 5,7 C 2,8 C
29.11.2006 07:46 6,3 C 5,5 C 93 % 1024 hPa 0,0 l/m 17,8 km/h (3 Bft) W22.5 260 0 min 0 lux 0,00 min 5,3 C -0,6 C
29.11.2006 08:01 6,1 C 5,4 C 93 % 1024 hPa 0,0 l/m 10,4 km/h (2 Bft) W 260 0 min 0 lux 0,00 min 5,1 C 3,0 C
29.11.2006 08:16 5,8 C 4,9 C 93 % 1024 hPa 0,0 l/m 9,8 km/h (2 Bft) W22.5 265 0 min 139 lux 0,00 min 4,8 C 3,1 C
29.11.2006 08:31 5,8 C 4,8 C 94 % 1025 hPa 0,0 l/m 13,6 km/h (3 Bft) W22.5 275 0 min 574 lux 0,00 min 4,9 C 0,8 C
29.11.2006 08:46 5,6 C 4,4 C 93 % 1025 hPa 0,0 l/m 8,9 km/h (2 Bft) W22.5 270 0 min 1,44 klux 0,00 min 4,6 C 3,5 C
29.11.2006 09:01 5,1 C 3,6 C 93 % 1025 hPa 0,0 l/m 6,4 km/h (2 Bft) W 270 0 min 2,31 klux 0,00 min 4,1 C 5,1 C
29.11.2006 09:16 4,7 C 3,1 C 93 % 1025 hPa 0,0 l/m 3,5 km/h (1 Bft) W 260 0 min 7,28 klux 0,00 min 3,7 C 4,7 C
29.11.2006 09:31 4,8 C 3,1 C 93 % 1026 hPa 0,0 l/m 4,7 km/h (1 Bft) W 260 0 min 18,9 klux 0,00 min 3,8 C 4,8 C
29.11.2006 09:46 5,5 C 4,2 C 94 % 1026 hPa 0,0 l/m 0,0 km/h (0 Bft) W 260 0 min 24,0 klux 0,00 min 4,6 C 5,5 C
29.11.2006 10:01 6,3 C 5,5 C 95 % 1026 hPa 0,0 l/m 0,3 km/h (0 Bft) W 260 0 min 28,0 klux 0,00 min 5,6 C 6,3 C
29.11.2006 10:16 6,6 C 5,8 C 94 % 1027 hPa 0,0 l/m 9,0 km/h (2 Bft) W22.5 270 0 min 3,90 klux 0,00 min 5,7 C 4,5 C
29.11.2006 10:31 6,8 C 6,1 C 94 % 1027 hPa 0,0 l/m 22,5 km/h (4 Bft) W22.5 265 0 min 6,66 klux 0,00 min 5,9 C -1,7 C
29.11.2006 10:46 7,1 C 6,5 C 93 % 1027 hPa 0,0 l/m 10,4 km/h (2 Bft) W45 275 0 min 8,28 klux 0,00 min 6,0 C 4,1 C
29.11.2006 11:02 7,3 C 6,7 C 92 % 1027 hPa 0,0 l/m 19,8 km/h (3 Bft) W22.5 275 0 min 9,1 klux 0,00 min 6,1 C -0,1 C
29.11.2006 11:17 7,6 C 7,0 C 91 % 1027 hPa 0,0 l/m 18,3 km/h (3 Bft) W45 270 0 min 14,6 klux 0,00 min 6,2 C 0,8 C
29.11.2006 11:32 8,3 C 8,8 C 91 % 1027 hPa 0,0 l/m 19,3 km/h (3 Bft) W45 270 15 min 65,2 klux 0,00 min 6,9 C 1,3 C
29.11.2006 11:47 8,2 C 8,5 C 87 % 1028 hPa 0,0 l/m 20,2 km/h (4 Bft) W22.5 275 0 min 10,0 klux 0,00 min 6,2 C 0,9 C
29.11.2006 12:02 8,3 C 8,5 C 88 % 1028 hPa 0,0 l/m 10,4 km/h (2 Bft) W-SW45 250 0 min 14,5 klux 0,00 min 6,4 C 5,5 C
29.11.2006 12:17 8,4 C 8,4 C 87 % 1028 hPa 0,0 l/m 14,8 km/h (3 Bft) W22.5 260 0 min 13,8 klux 0,00 min 6,4 C 3,3 C
29.11.2006 12:32 8,3 C 8,0 C 87 % 1028 hPa 0,0 l/m 10,9 km/h (2 Bft) W-SW22.5 250 0 min 7,15 klux 0,00 min 6,3 C 5,2 C
29.11.2006 12:47 8,2 C 7,8 C 87 % 1028 hPa 0,0 l/m 8,7 km/h (2 Bft) W22.5 260 0 min 7,32 klux 0,00 min 6,2 C 6,5 C
29.11.2006 13:02 8,4 C 8,0 C 87 % 1028 hPa 0,0 l/m 6,9 km/h (2 Bft) W-SW22.5 255 0 min 10,5 klux 0,00 min 6,4 C 8,0 C
29.11.2006 13:17 8,4 C 8,1 C 86 % 1028 hPa 0,0 l/m 9,5 km/h (2 Bft) W45 270 0 min 13,1 klux 0,00 min 6,2 C 6,1 C
29.11.2006 13:32 8,4 C 8,2 C 85 % 1028 hPa 0,0 l/m 14,7 km/h (3 Bft) W22.5 270 0 min 11,0 klux 0,00 min 6,0 C 3,3 C
29.11.2006 13:47 8,1 C 8,0 C 84 % 1028 hPa 0,0 l/m 11,3 km/h (2 Bft) W22.5 275 0 min 5,37 klux 0,00 min 5,6 C 4,7 C
29.11.2006 14:02 7,9 C 7,8 C 85 % 1028 hPa 0,0 l/m 12,7 km/h (3 Bft) W22.5 280 0 min 6,74 klux 0,00 min 5,5 C 3,7 C
29.11.2006 14:17 8,1 C 7,8 C 86 % 1028 hPa 0,0 l/m 14,7 km/h (3 Bft) W22.5 260 0 min 7,41 klux 0,00 min 5,9 C 3,0 C
29.11.2006 14:32 8,4 C 8,0 C 86 % 1028 hPa 0,0 l/m 16,1 km/h (3 Bft) W22.5 260 0 min 36,6 klux 0,00 min 6,2 C 2,7 C
29.11.2006 14:47 8,8 C 8,3 C 85 % 1029 hPa 0,0 l/m 55,5 km/h (7 Bft) W22.5 260 0 min 24,4 klux 0,00 min 6,4 C -4,7 C
29.11.2006 15:02 8,6 C 8,1 C 84 % 1029 hPa 0,0 l/m 19,1 km/h (3 Bft) W-SW45 250 0 min 14,5 klux 0,00 min 6,1 C 1,8 C
29.11.2006 15:17 8,3 C 7,8 C 85 % 1029 hPa 0,0 l/m 15,8 km/h (3 Bft) W22.5 265 0 min 10,7 klux 0,00 min 5,9 C 2,7 C
29.11.2006 15:32 8,2 C 7,7 C 84 % 1029 hPa 0,0 l/m 10,0 km/h (2 Bft) W-SW22.5 255 0 min 8,56 klux 0,00 min 5,7 C 5,6 C
29.11.2006 15:47 8,1 C 7,4 C 84 % 1029 hPa 0,0 l/m 8,7 km/h (2 Bft) W-SW22.5 255 0 min 5,89 klux 0,00 min 5,6 C 6,4 C
29.11.2006 16:02 7,9 C 7,3 C 85 % 1029 hPa 0,0 l/m 11,0 km/h (2 Bft) W-SW45 255 0 min 6,65 klux 0,00 min 5,5 C 4,7 C
29.11.2006 16:17 7,7 C 7,2 C 85 % 1030 hPa 0,0 l/m 13,0 km/h (3 Bft) W22.5 270 0 min 4,93 klux 0,00 min 5,3 C 3,3 C
29.11.2006 16:32 7,0 C 6,0 C 84 % 1030 hPa 0,0 l/m 12,5 km/h (3 Bft) W22.5 270 0 min 2,93 klux 0,00 min 4,5 C 2,8 C
29.11.2006 16:47 6,2 C 5,0 C 84 % 1030 hPa 0,0 l/m 9,4 km/h (2 Bft) W22.5 275 0 min 1,69 klux 0,00 min 3,7 C 3,8 C
29.11.2006 17:02 5,4 C 3,3 C 85 % 1030 hPa 0,0 l/m 2,2 km/h (1 Bft) W-SW 255 0 min 871 lux 0,00 min 3,1 C 5,4 C
29.11.2006 17:17 4,4 C 2,3 C 86 % 1030 hPa 0,0 l/m 0,0 km/h (0 Bft) W-SW 255 0 min 254 lux 0,00 min 2,3 C 4,4 C
29.11.2006 17:32 3,3 C 1,5 C 87 % 1031 hPa 0,0 l/m 0,0 km/h (0 Bft) W-SW 255 0 min 38 lux 0,00 min 1,3 C 3,3 C
29.11.2006 17:47 2,6 C 0,8 C 88 % 1031 hPa 0,0 l/m 0,0 km/h (0 Bft) W-SW 255 0 min 3 lux 0,00 min 0,8 C 2,6 C
29.11.2006 18:02 2,3 C 0,1 C 89 % 1031 hPa 0,0 l/m 0,0 km/h (0 Bft) W-SW 250 0 min 0 lux 0,00 min 0,7 C 2,3 C
29.11.2006 18:17 1,9 C -0,1 C 89 % 1031 hPa 0,0 l/m 0,0 km/h (0 Bft) W-SW 255 0 min 0 lux 0,00 min 0,3 C 1,9 C
29.11.2006 18:32 1,4 C -0,7 C 90 % 1031 hPa 0,0 l/m 1,2 km/h (1 Bft) W-SW 255 0 min 0 lux 0,00 min -0,1 C 1,4 C
29.11.2006 18:47 1,3 C -0,6 C 91 % 1032 hPa 0,0 l/m 3,5 km/h (1 Bft) W-SW 250 0 min 0 lux 0,00 min -0,0 C 1,3 C
29.11.2006 19:02 1,0 C -1,1 C 90 % 1032 hPa 0,0 l/m 0,0 km/h (0 Bft) W-SW 250 0 min 0 lux 0,00 min -0,5 C 1,0 C
29.11.2006 19:17 0,7 C -1,0 C 91 % 1032 hPa 0,0 l/m 0,0 km/h (0 Bft) W-SW 250 0 min 0 lux 0,00 min -0,6 C 0,7 C
29.11.2006 19:32 0,7 C -1,2 C 92 % 1032 hPa 0,0 l/m 0,0 km/h (0 Bft) W-SW 250 0 min 0 lux 0,00 min -0,4 C 0,7 C
29.11.2006 19:47 0,5 C -1,5 C 91 % 1032 hPa 0,0 l/m 0,0 km/h (0 Bft) W-SW 250 0 min 0 lux 0,00 min -0,8 C 0,5 C
29.11.2006 20:02 0,1 C -1,8 C 91 % 1032 hPa 0,0 l/m 0,0 km/h (0 Bft) W-SW 250 0 min 0 lux 0,00 min -1,2 C 0,1 C
29.11.2006 20:17 -0,2 C -2,2 C 92 % 1032 hPa 0,0 l/m 0,0 km/h (0 Bft) W-SW 250 0 min 0 lux 0,00 min -1,3 C -0,2 C
29.11.2006 20:32 -0,6 C -2,5 C 92 % 1032 hPa 0,0 l/m 0,0 km/h (0 Bft) W-SW 250 0 min 0 lux 0,00 min -1,7 C -0,6 C
29.11.2006 20:47 -0,8 C -2,6 C 92 % 1032 hPa 0,0 l/m 3,4 km/h (1 Bft) W-SW 250 0 min 0 lux 0,00 min -1,9 C -0,8 C
29.11.2006 21:02 -0,9 C -2,5 C 92 % 1033 hPa 0,0 l/m 3,4 km/h (1 Bft) W-SW 250 0 min 0 lux 0,00 min -2,0 C -0,9 C
29.11.2006 21:17 -1,0 C -2,4 C 92 % 1032 hPa 0,0 l/m 0,0 km/h (0 Bft) W-SW 250 0 min 0 lux 0,00 min -2,1 C -1,0 C
29.11.2006 21:32 -0,7 C -1,9 C 93 % 1032 hPa 0,0 l/m 0,4 km/h (0 Bft) W-SW 250 0 min 0 lux 0,00 min -1,7 C -0,7 C
29.11.2006 21:47 -0,6 C -1,7 C 93 % 1032 hPa 0,0 l/m 0,2 km/h (0 Bft) W-SW 250 0 min 0 lux 0,00 min -1,6 C -0,6 C
29.11.2006 22:02 -0,6 C -1,8 C 93 % 1033 hPa 0,0 l/m 0,4 km/h (0 Bft) W-SW 250 0 min 0 lux 0,00 min -1,6 C -0,6 C
29.11.2006 22:17 -0,7 C -1,8 C 93 % 1033 hPa 0,0 l/m 2,5 km/h (1 Bft) W-SW 250 0 min 0 lux 0,00 min -1,7 C -0,7 C
29.11.2006 22:31 -0,9 C -1,8 C 93 % 1033 hPa 0,0 l/m 3,8 km/h (1 Bft) W-SW 250 0 min 0 lux 0,00 min -1,9 C -0,9 C
29.11.2006 22:46 -0,9 C -1,8 C 93 % 1033 hPa 0,0 l/m 6,5 km/h (2 Bft) W-SW 250 0 min 0 lux 0,00 min -1,9 C -1,0 C
29.11.2006 23:01 -1,0 C -1,7 C 93 % 1033 hPa 0,0 l/m 0,0 km/h (0 Bft) W-SW 250 0 min 0 lux 0,00 min -2,0 C -1,0 C
29.11.2006 23:16 -1,0 C -1,7 C 93 % 1033 hPa 0,0 l/m 0,0 km/h (0 Bft) W-SW 250 0 min 0 lux 0,00 min -2,0 C -1,0 C
29.11.2006 23:31 -1,2 C -2,0 C 93 % 1033 hPa 0,0 l/m 2,2 km/h (1 Bft) W-SW 250 0 min 0 lux 0,00 min -2,2 C -1,2 C
29.11.2006 23:46 -1,3 C -2,2 C 93 % 1033 hPa 0,0 l/m 2,2 km/h (1 Bft) W-SW 250 0 min 0 lux 0,00 min -2,3 C -1,3 C
_ Min-Zeit 23:46 20:47 13:47 00:01 - 09:46 - - - - - 23:46 14:47
Minimum _ -1,3 C -2,6 C 84 % 1019 hPa - 0,0 km/h (0 Bft) - - - - - -2,3 C -4,7 C
_ Max-Zeit 00:01 00:01 10:01 21:02 01:31 14:47 - - 11:32 11:32 01:31 02:46 13:02
Maximum _ 9,1 C 8,8 C 95 % 1033 hPa 0,3 l/m 55,5 km/h
W (7 Bft)
- - 15 min 65,2 klux 15,00 min 8,0 C 8,0 C
Durchschnitt _ 5,6 C 4,8 C 91 % 1027 hPa #0,6 l/m 9,8 km/h (2 Bft) W - #15 min. 4,33 klux #30 min. 4,2 C 2,7 C